PDT,Max TemperatureF,Mean TemperatureF,Min TemperatureF,Max Dew PointF,MeanDew PointF,Min DewpointF,Max Humidity, Mean Humidity, Min Humidity, Max Sea Level PressureIn, Mean Sea Level PressureIn, Min Sea Level PressureIn, Max VisibilityMiles, Mean VisibilityMiles, Min VisibilityMiles, Max Wind SpeedMPH, Mean Wind SpeedMPH, Max Gust SpeedMPH,PrecipitationIn, CloudCover, Events, WindDirDegrees
2013-6-1,77,62,48,45,40,34,74,45,22,30.20,30.09,29.94,10,10,10,9,5,,0.00,1,,129
2013-6-2,75,64,54,48,43,37,72,48,27,29.96,29.93,29.89,10,10,10,14,8,22,0.00,5,,217
2013-6-3,78,65,52,45,42,36,69,45,23,30.05,30.00,29.96,10,10,10,12,7,20,0.00,0,,193
2013-6-4,84,65,48,52,44,39,74,44,22,30.12,30.05,30.01,10,9,2,10,5,,0.00,0,,165
2013-6-5,88,73,59,51,45,40,62,38,19,30.03,29.97,29.89,10,10,8,10,6,,0.00,0,,132
2013-6-6,91,78,66,54,49,43,54,40,21,30.00,29.92,29.86,10,10,2,10,7,,0.00,0,,194
2013-6-7,90,78,64,52,46,35,54,35,18,30.01,29.93,29.87,10,10,8,18,13,29,0.00,1,,216
2013-6-8,87,72,59,48,40,30,67,37,13,30.06,29.99,29.90,10,10,10,14,8,16,0.00,0,,204
2013-6-9,82,70,59,48,41,22,60,38,11,29.98,29.91,29.82,10,10,10,15,9,26,0.00,0,,203
2013-6-10,80,67,55,42,39,34,57,38,20,29.90,29.83,29.73,10,10,10,12,7,16,0.00,0,,196
2013-6-11,73,64,55,40,37,31,55,39,24,30.06,29.94,29.81,10,10,8,22,16,32,0.00,0,,215
2013-6-12,73,61,51,40,37,34,63,43,26,30.10,30.06,30.00,10,10,10,15,10,24,0.00,0,,210
2013-6-13,71,60,51,43,39,36,66,46,30,30.15,30.10,30.06,10,10,10,20,14,24,0.00,3,,206
2013-6-14,75,64,54,44,40,34,69,46,23,30.22,30.12,30.01,10,10,10,17,12,23,0.00,1,,201
2013-6-15,89,70,51,43,38,26,66,36,10,29.99,29.92,29.86,10,10,4,12,6,,0.00,0,,77
2013-6-16,93,77,63,48,43,32,48,32,12,29.98,29.91,29.83,10,10,9,21,7,31,0.00,0,,182
2013-6-17,89,75,62,51,44,40,53,36,19,30.01,29.93,29.78,10,10,10,18,9,23,0.00,1,,215
2013-6-18,66,62,57,52,51,49,81,69,54,29.94,29.91,29.86,10,10,10,10,8,,0.00,8,,187
2013-6-19,59,55,51,52,49,47,94,81,72,29.96,29.88,29.83,10,9,4,18,9,28,0.59,8,Rain,172
2013-6-20,69,60,52,50,45,40,89,62,36,30.09,29.99,29.96,10,10,6,21,14,31,0.12,6,Rain,224
2013-6-21,64,58,51,52,49,44,94,76,50,30.14,30.11,30.08,10,9,5,13,7,,0.21,6,Rain,191
2013-6-22,78,64,51,53,46,42,83,54,30,30.10,30.01,29.87,10,10,9,8,6,,0.00,0,,122
2013-6-23,79,67,55,57,51,48,87,59,36,29.86,29.74,29.61,10,10,8,18,5,28,0.03,4,Rain,73
2013-6-24,66,62,57,59,56,51,96,86,68,29.73,29.68,29.62,10,8,2,14,5,,0.40,8,Rain,193
2013-6-25,73,64,57,59,54,48,94,78,44,29.92,29.82,29.73,10,9,2,13,6,,0.24,7,Rain,181
2013-6-26,73,64,57,64,59,56,93,81,59,30.08,29.99,29.92,10,10,6,8,4,,0.03,4,Rain,138
2013-6-27,86,72,59,60,56,53,87,59,36,30.16,30.11,30.08,10,10,10,12,6,,0.00,1,,63
2013-6-28,96,80,64,68,60,57,78,55,29,30.17,30.08,29.97,10,10,7,8,5,,0.00,0,,159
2013-6-29,93,80,68,63,61,56,78,54,29,30.00,29.96,29.91,10,10,10,14,7,20,0.00,1,,124
2013-6-30,100,83,66,62,59,55,76,47,22,30.01,29.93,29.85,10,10,10,17,7,26,0.00,0,,75